< < Back
Terminal Aerodrome Forecast


Current Version              Previous Versions:   1  2  3  4  5  6  7  8  9  

Terminal Aerodrome Forecast

167
FTUS42 KGSP 261749
TAFHKY
TAF
KHKY 261749Z 2618/2718 05003KT P6SM FEW021 OVC035
     FM262200 14003KT P6SM OVC020
     FM270100 VRB03KT P6SM OVC016
     FM271100 32004KT P6SM BKN030
     FM271600 33006KT P6SM SCT026=



Latest METAR

372
SAUS70 KWBC 270600 RRJ
MTRHKY
METAR KHKY 270553Z AUTO 28003KT 10SM FEW046 M01/M03 A3014 RMK AO2 SLP204
T10061033 10028 21011 52015 $


USA.gov is the U.S. government's official web portal to all federal, state and local government web resources and services.